Time;durP1;ratioP1;P1;durP2;ratioP2;P2;SDS_P1;SDS_P2;PMS_P1;PMS_P2;Temp;Humidity;BMP_temperature;BMP_pressure;BME280_temperature;BME280_humidity;BME280_pressure;Samples;Min_cycle;Max_cycle;Signal;HPM_P1;HPM_P2
2021/06/22 00:00:36;;;;;;;13.35;12.05;;;23.90;99.90;;;;;;4335169;32;20066;-75
2021/06/22 00:03:02;;;;;;;14.85;13.40;;;24.00;99.90;;;;;;4335677;32;20070;-75
2021/06/22 00:05:30;;;;;;;14.55;13.02;;;23.90;99.90;;;;;;4335452;32;20222;-76
2021/06/22 00:07:56;;;;;;;13.70;12.30;;;23.90;99.90;;;;;;4335258;32;20086;-75
2021/06/22 00:10:25;;;;;;;13.93;12.60;;;23.80;99.90;;;;;;4335144;32;20534;-76
2021/06/22 00:12:51;;;;;;;14.87;13.35;;;23.90;99.90;;;;;;4326363;32;20078;-75
2021/06/22 00:15:20;;;;;;;16.00;12.40;;;23.90;99.90;;;;;;4338465;32;20063;-74
2021/06/22 00:17:46;;;;;;;15.07;12.88;;;23.90;99.90;;;;;;4315941;32;20097;-75
2021/06/22 00:20:14;;;;;;;14.75;13.15;;;23.90;99.90;;;;;;4379377;32;20069;-75
2021/06/22 00:22:40;;;;;;;14.15;12.85;;;23.80;99.90;;;;;;4377550;32;20055;-76
2021/06/22 00:25:11;;;;;;;15.77;12.93;;;23.80;99.90;;;;;;4365315;32;20069;-75
2021/06/22 00:27:37;;;;;;;14.13;12.75;;;23.90;99.90;;;;;;4352845;32;20151;-75
2021/06/22 00:30:06;;;;;;;15.07;12.88;;;23.90;99.90;;;;;;4365329;32;20073;-75
2021/06/22 00:32:32;;;;;;;13.68;12.32;;;23.90;99.90;;;;;;4340964;32;20175;-75
2021/06/22 00:34:59;;;;;;;14.30;12.90;;;23.80;99.90;;;;;;4372229;32;20074;-75
2021/06/22 00:37:25;;;;;;;14.15;12.60;;;23.60;99.90;;;;;;4350594;32;20171;-75
2021/06/22 00:39:51;;;;;;;17.33;13.13;;;23.50;99.90;;;;;;4325869;32;20066;-75
2021/06/22 00:42:17;;;;;;;14.75;13.25;;;23.40;99.90;;;;;;4350102;32;20156;-74
2021/06/22 00:44:47;;;;;;;14.07;12.57;;;23.40;99.90;;;;;;4337812;32;20091;-76
2021/06/22 00:47:16;;;;;;;14.27;12.82;;;23.50;99.90;;;;;;4338100;32;20074;-75
2021/06/22 00:49:42;;;;;;;14.77;12.65;;;23.60;99.90;;;;;;4326072;32;20081;-75
2021/06/22 00:52:09;;;;;;;14.35;12.95;;;23.60;99.90;;;;;;4325710;32;20055;-74
2021/06/22 00:54:36;;;;;;;14.30;12.55;;;23.60;99.90;;;;;;4325119;32;20160;-75
2021/06/22 00:57:06;;;;;;;13.90;12.57;;;23.70;99.90;;;;;;4325547;32;20090;-75
2021/06/22 00:59:32;;;;;;;14.60;13.02;;;23.60;99.90;;;;;;4337710;32;20077;-75
2021/06/22 01:01:58;;;;;;;14.73;13.30;;;23.50;99.90;;;;;;4325607;32;20112;-75
2021/06/22 01:04:29;;;;;;;17.27;13.60;;;23.60;99.90;;;;;;4325666;32;20166;-74
2021/06/22 01:06:56;;;;;;;14.52;12.77;;;23.60;99.90;;;;;;4325288;32;20066;-75
2021/06/22 01:09:23;;;;;;;16.80;13.48;;;23.50;99.90;;;;;;4313142;32;20081;-75
2021/06/22 01:11:50;;;;;;;14.93;13.27;;;23.60;99.90;;;;;;4325475;32;20239;-75
2021/06/22 01:14:16;;;;;;;15.98;12.88;;;23.60;99.90;;;;;;4325970;32;20159;-74
2021/06/22 01:16:42;;;;;;;20.75;15.80;;;23.60;99.90;;;;;;4313117;32;20071;-75
2021/06/22 01:19:09;;;;;;;17.98;15.85;;;23.00;99.90;;;;;;4325313;32;20077;-75
2021/06/22 01:21:36;;;;;;;23.70;17.08;;;23.00;99.90;;;;;;4313062;32;20073;-75
2021/06/22 01:24:17;;;;;;;22.73;16.65;;;22.70;99.90;;;;;;4324816;32;20066;-74
2021/06/22 01:26:54;;;;;;;26.45;17.12;;;22.70;99.90;;;;;;4338044;32;20070;-75
2021/06/22 01:29:21;;;;;;;27.40;17.15;;;22.60;99.90;;;;;;4326239;32;20155;-74
2021/06/22 01:31:47;;;;;;;26.85;17.55;;;22.80;99.90;;;;;;4313274;32;20082;-75
2021/06/22 01:34:13;;;;;;;31.30;19.70;;;22.70;99.90;;;;;;4313331;32;20090;-75
2021/06/22 01:36:41;;;;;;;30.30;18.00;;;22.60;99.90;;;;;;4357815;32;20519;-76
2021/06/22 01:39:12;;;;;;;32.13;18.25;;;22.50;99.90;;;;;;4325226;32;20177;-76
2021/06/22 01:41:38;;;;;;;33.33;18.83;;;22.70;99.90;;;;;;4324816;32;20574;-75
2021/06/22 01:44:05;;;;;;;26.67;18.73;;;22.50;99.90;;;;;;4336917;32;20516;-74
2021/06/22 01:46:31;;;;;;;25.92;18.52;;;22.50;99.90;;;;;;4361398;32;20172;-75
2021/06/22 01:48:57;;;;;;;28.45;19.05;;;22.70;99.90;;;;;;4337056;32;20578;-76
2021/06/22 01:51:23;;;;;;;30.02;19.17;;;22.60;99.90;;;;;;4337045;32;20074;-75
2021/06/22 01:53:56;;;;;;;29.83;18.75;;;22.60;99.90;;;;;;4349508;32;20086;-75
2021/06/22 01:56:23;;;;;;;28.80;17.87;;;22.60;99.90;;;;;;4324940;32;20538;-77
2021/06/22 01:58:49;;;;;;;24.35;18.05;;;22.90;99.90;;;;;;4325050;32;20164;-76
2021/06/22 02:01:15;;;;;;;26.65;17.90;;;23.00;99.90;;;;;;4336630;32;20138;-76
2021/06/22 02:03:42;;;;;;;25.00;17.62;;;23.10;99.90;;;;;;4324993;32;20079;-77
2021/06/22 02:06:08;;;;;;;32.05;18.70;;;23.30;99.90;;;;;;4348828;32;20156;-76
2021/06/22 02:08:34;;;;;;;28.27;18.45;;;23.50;99.90;;;;;;4337142;32;20184;-75
2021/06/22 02:11:00;;;;;;;25.48;17.95;;;23.60;99.90;;;;;;4336465;32;20073;-75
2021/06/22 02:13:28;;;;;;;28.60;18.00;;;23.70;99.90;;;;;;4336446;32;20090;-75
2021/06/22 02:15:54;;;;;;;29.70;19.08;;;23.70;99.90;;;;;;4337132;32;20538;-75
2021/06/22 02:18:21;;;;;;;23.80;17.83;;;23.80;99.90;;;;;;4337030;32;20183;-75
2021/06/22 02:20:47;;;;;;;28.25;18.27;;;24.00;99.90;;;;;;4336600;32;20204;-75
2021/06/22 02:23:14;;;;;;;25.37;17.98;;;24.00;99.90;;;;;;4336392;32;20062;-75
2021/06/22 02:25:40;;;;;;;29.55;18.60;;;24.10;99.90;;;;;;4325225;32;20097;-76
2021/06/22 02:28:18;;;;;;;25.00;18.23;;;24.20;99.90;;;;;;4337695;32;20453;-76
2021/06/22 02:30:44;;;;;;;25.73;18.02;;;24.30;99.90;;;;;;4337057;32;20085;-76
2021/06/22 02:33:11;;;;;;;26.83;18.17;;;24.40;99.90;;;;;;4337075;32;20077;-75
2021/06/22 02:35:37;;;;;;;26.85;18.35;;;24.40;99.90;;;;;;4339814;32;20070;-74
2021/06/22 02:38:03;;;;;;;22.85;17.10;;;24.40;99.90;;;;;;4339634;32;20070;-76
2021/06/22 02:40:30;;;;;;;23.20;16.70;;;24.50;99.90;;;;;;4338917;32;20070;-76
2021/06/22 02:42:56;;;;;;;24.42;16.70;;;24.70;99.90;;;;;;4314204;32;20074;-76
2021/06/22 02:45:22;;;;;;;17.70;15.65;;;24.60;99.90;;;;;;4351180;32;20077;-76
2021/06/22 02:47:48;;;;;;;18.90;15.65;;;24.80;99.90;;;;;;4339168;32;20066;-75
2021/06/22 02:50:16;;;;;;;21.90;16.15;;;24.80;99.90;;;;;;4338664;32;20449;-75
2021/06/22 02:52:42;;;;;;;22.98;16.27;;;24.70;99.90;;;;;;4339395;32;20074;-75
2021/06/22 02:55:19;;;;;;;19.12;15.82;;;24.80;99.90;;;;;;4338573;32;20081;-76
2021/06/22 02:57:50;;;;;;;21.27;16.08;;;24.80;99.90;;;;;;4354112;32;20146;-75
2021/06/22 03:00:21;;;;;;;17.48;14.80;;;25.00;99.90;;;;;;4351916;32;20144;-75
2021/06/22 03:02:47;;;;;;;21.25;14.52;;;25.00;99.90;;;;;;4363379;32;20150;-75
2021/06/22 03:05:14;;;;;;;23.52;16.52;;;25.00;99.90;;;;;;4350810;32;20169;-76
2021/06/22 03:07:40;;;;;;;24.37;17.27;;;25.00;99.90;;;;;;4338472;32;20178;-76
2021/06/22 03:10:08;;;;;;;25.10;16.10;;;25.00;99.90;;;;;;4350640;32;20084;-75
2021/06/22 03:12:34;;;;;;;19.60;15.05;;;25.10;99.90;;;;;;4338392;32;20070;-75
2021/06/22 03:15:01;;;;;;;23.00;15.48;;;25.10;99.90;;;;;;4352108;32;20059;-75
2021/06/22 03:17:27;;;;;;;22.08;16.10;;;25.20;99.90;;;;;;4364994;32;20076;-76
2021/06/22 03:19:53;;;;;;;25.55;16.27;;;25.30;99.90;;;;;;4351926;32;20085;-76
2021/06/22 03:22:19;;;;;;;24.27;16.05;;;25.30;99.90;;;;;;4363398;32;20082;-76
2021/06/22 03:24:45;;;;;;;21.58;15.18;;;25.50;99.90;;;;;;4338409;32;20082;-75
2021/06/22 03:27:12;;;;;;;22.15;15.02;;;25.60;99.90;;;;;;4326405;32;20543;-76
2021/06/22 03:29:38;;;;;;;20.35;14.00;;;25.70;99.90;;;;;;4350803;32;20058;-75
2021/06/22 03:32:05;;;;;;;22.80;15.27;;;25.70;99.90;;;;;;4350693;32;20167;-75
2021/06/22 03:34:31;;;;;;;21.10;14.20;;;25.70;99.90;;;;;;4350319;32;20077;-77
2021/06/22 03:36:57;;;;;;;18.77;12.73;;;25.80;99.90;;;;;;4362210;32;20067;-75
2021/06/22 03:39:23;;;;;;;17.48;13.23;;;25.80;99.90;;;;;;4335035;32;20457;-76
2021/06/22 03:41:49;;;;;;;18.60;13.98;;;25.90;99.90;;;;;;4335959;32;20063;-76
2021/06/22 03:44:15;;;;;;;16.05;12.77;;;26.00;99.90;;;;;;4335743;32;20071;-76
2021/06/22 03:46:42;;;;;;;15.15;12.70;;;26.00;99.90;;;;;;4347441;32;20089;-75
2021/06/22 03:49:09;;;;;;;23.38;13.55;;;26.10;99.90;;;;;;4335464;32;20076;-74
2021/06/22 03:51:35;;;;;;;18.83;13.45;;;26.10;99.90;;;;;;4335387;32;20089;-75
2021/06/22 03:54:01;;;;;;;16.12;12.50;;;26.20;99.90;;;;;;4347291;32;20144;-74
2021/06/22 03:56:28;;;;;;;15.02;12.80;;;26.30;99.90;;;;;;4347750;32;20077;-76
2021/06/22 03:58:55;;;;;;;17.80;12.30;;;26.40;99.90;;;;;;4335736;32;20070;-75
2021/06/22 04:01:21;;;;;;;19.73;14.07;;;26.40;99.90;;;;;;4335339;32;20449;-75
2021/06/22 04:03:47;;;;;;;24.80;12.37;;;26.50;99.90;;;;;;4335563;32;20075;-75
2021/06/22 04:06:15;;;;;;;17.30;12.55;;;26.50;99.90;;;;;;4335553;32;20143;-74
2021/06/22 04:08:41;;;;;;;16.00;12.82;;;26.70;99.90;;;;;;4324514;32;20082;-77
2021/06/22 04:11:08;;;;;;;20.65;11.90;;;26.70;99.90;;;;;;4348175;32;20082;-76
2021/06/22 04:13:35;;;;;;;20.67;13.57;;;26.70;99.90;;;;;;4336407;32;20100;-75
2021/06/22 04:16:01;;;;;;;18.23;13.02;;;26.70;99.90;;;;;;4335379;32;20067;-75
2021/06/22 04:18:27;;;;;;;16.90;12.88;;;26.80;99.90;;;;;;4335503;32;20080;-75
2021/06/22 04:20:54;;;;;;;22.20;13.82;;;26.90;99.90;;;;;;4323182;32;20077;-74
2021/06/22 04:23:20;;;;;;;20.42;13.25;;;27.10;99.90;;;;;;4335737;32;20097;-75
2021/06/22 04:25:48;;;;;;;23.02;14.30;;;27.10;99.90;;;;;;4322992;32;20145;-76
2021/06/22 04:28:14;;;;;;;20.37;13.62;;;27.10;99.90;;;;;;4347890;32;20093;-75
2021/06/22 04:30:40;;;;;;;17.40;13.57;;;28.20;99.90;;;;;;4310898;32;20175;-75
2021/06/22 04:33:07;;;;;;;19.77;14.35;;;30.40;99.90;;;;;;4322851;32;20524;-75
2021/06/22 04:35:33;;;;;;;18.98;13.50;;;31.20;95.70;;;;;;4327304;32;20080;-75
2021/06/22 04:38:00;;;;;;;15.50;11.85;;;31.70;89.60;;;;;;4347465;32;20102;-76
2021/06/22 04:40:27;;;;;;;12.57;10.95;;;31.60;82.30;;;;;;4311145;32;20082;-75
2021/06/22 04:42:53;;;;;;;16.15;10.80;;;31.20;82.20;;;;;;4347227;32;20079;-75
2021/06/22 04:45:20;;;;;;;15.90;10.50;;;32.20;71.60;;;;;;4336372;32;20074;-76
2021/06/22 04:47:46;;;;;;;14.77;9.98;;;32.50;65.40;;;;;;4336162;32;20074;-75
2021/06/22 04:50:12;;;;;;;14.32;9.23;;;32.30;62.90;;;;;;4323042;32;20090;-75
2021/06/22 04:52:38;;;;;;;16.77;9.60;;;32.60;58.40;;;;;;4335197;32;20082;-76
2021/06/22 04:55:12;;;;;;;13.10;10.38;;;32.00;58.90;;;;;;4335053;32;20513;-75
2021/06/22 04:57:44;;;;;;;13.02;9.70;;;32.70;59.10;;;;;;4337148;32;20082;-74
2021/06/22 05:00:11;;;;;;;10.75;9.13;;;32.40;57.40;;;;;;4326393;32;20456;-74
2021/06/22 05:02:39;;;;;;;12.02;9.93;;;32.20;57.80;;;;;;4337933;32;20059;-75
2021/06/22 05:05:06;;;;;;;12.77;9.32;;;33.20;54.50;;;;;;4338252;32;20066;-74
2021/06/22 05:07:32;;;;;;;14.00;9.68;;;32.80;53.80;;;;;;4325530;32;20583;-75
2021/06/22 05:09:59;;;;;;;14.73;9.25;;;32.60;52.60;;;;;;4325724;32;20086;-77
2021/06/22 05:12:25;;;;;;;13.40;8.73;;;32.90;51.90;;;;;;4325939;32;20121;-74
2021/06/22 05:14:51;;;;;;;12.40;10.00;;;32.70;54.70;;;;;;4349938;32;20062;-75
2021/06/22 05:17:18;;;;;;;15.38;10.73;;;33.30;51.10;;;;;;4338003;32;20074;-75
2021/06/22 05:19:44;;;;;;;12.98;10.07;;;33.20;49.20;;;;;;4325282;32;20059;-75
2021/06/22 05:22:10;;;;;;;12.52;10.30;;;33.10;49.20;;;;;;4337106;32;20062;-74
2021/06/22 05:24:36;;;;;;;12.40;8.82;;;33.90;46.30;;;;;;4337574;32;20513;-76
2021/06/22 05:27:03;;;;;;;9.40;7.93;;;33.80;44.70;;;;;;4324921;32;20098;-75
2021/06/22 05:29:29;;;;;;;11.10;8.57;;;34.10;43.30;;;;;;4313179;32;20516;-76
2021/06/22 05:31:55;;;;;;;12.13;8.02;;;34.70;40.70;;;;;;4325122;32;20067;-76
2021/06/22 05:34:22;;;;;;;11.68;9.25;;;34.10;43.20;;;;;;4349238;32;20066;-80
2021/06/22 05:36:48;;;;;;;16.27;10.10;;;34.20;41.70;;;;;;4329852;32;20074;-81
2021/06/22 05:39:14;;;;;;;15.43;10.70;;;34.70;42.00;;;;;;4349382;32;20070;-77
2021/06/22 05:41:40;;;;;;;15.55;10.50;;;34.90;41.50;;;;;;4349622;32;20230;-78
2021/06/22 05:44:07;;;;;;;13.93;9.68;;;34.70;39.90;;;;;;4348998;32;20520;-77
2021/06/22 05:46:33;;;;;;;12.43;9.10;;;34.70;41.30;;;;;;4349668;32;20134;-78
2021/06/22 05:49:00;;;;;;;21.65;9.75;;;34.70;41.30;;;;;;4349546;32;20074;-79
2021/06/22 05:51:26;;;;;;;11.35;9.40;;;34.80;41.50;;;;;;4349792;32;20059;-76
2021/06/22 05:53:52;;;;;;;15.95;10.75;;;34.60;40.30;;;;;;4349242;32;20078;-75
2021/06/22 05:56:19;;;;;;;19.02;11.95;;;35.10;40.30;;;;;;4336397;32;20586;-77
2021/06/22 05:58:45;;;;;;;17.10;11.70;;;35.00;40.30;;;;;;4349555;32;20066;-81
2021/06/22 06:01:11;;;;;;;17.10;10.90;;;35.10;40.20;;;;;;4336856;32;20074;-79
2021/06/22 06:03:37;;;;;;;9.43;8.20;;;35.00;39.20;;;;;;4349053;32;20437;-81
2021/06/22 06:06:04;;;;;;;10.68;8.27;;;34.50;39.70;;;;;;4324770;32;20511;-80
2021/06/22 06:08:34;;;;;;;11.45;8.45;;;35.00;37.60;;;;;;4336601;32;20074;-80
2021/06/22 06:11:04;;;;;;;13.15;8.82;;;35.90;35.20;;;;;;4337234;32;20101;-82
2021/06/22 06:13:35;;;;;;;12.43;8.18;;;35.60;34.60;;;;;;4336607;32;20070;-82
2021/06/22 06:16:03;;;;;;;12.27;8.65;;;35.20;36.20;;;;;;4337074;32;20469;-78
2021/06/22 06:18:29;;;;;;;11.07;8.38;;;35.10;35.10;;;;;;4312437;32;20565;-78
2021/06/22 06:20:57;;;;;;;12.65;8.88;;;35.80;34.60;;;;;;4336550;32;20090;-80
2021/06/22 06:23:27;;;;;;;12.20;8.80;;;34.70;35.60;;;;;;4348904;32;20524;-79
2021/06/22 06:25:53;;;;;;;10.68;7.60;;;34.40;36.30;;;;;;4349063;32;20089;-80
2021/06/22 06:28:24;;;;;;;12.02;7.93;;;35.20;35.40;;;;;;4336749;32;20087;-80
2021/06/22 06:30:50;;;;;;;10.35;6.97;;;35.10;36.30;;;;;;4325465;32;20082;-78
2021/06/22 06:33:16;;;;;;;9.30;7.20;;;33.40;39.20;;;;;;4351771;32;20070;-80
2021/06/22 06:35:42;;;;;;;8.77;7.87;;;33.00;40.90;;;;;;4339557;32;20071;-79
2021/06/22 06:38:09;;;;;;;10.73;6.82;;;32.80;41.80;;;;;;4351282;32;20143;-79
2021/06/22 06:40:35;;;;;;;9.15;7.45;;;32.90;44.40;;;;;;4339251;32;20156;-79
2021/06/22 06:43:04;;;;;;;8.82;7.32;;;33.10;44.40;;;;;;4339564;32;20077;-79
2021/06/22 06:45:30;;;;;;;8.32;7.10;;;32.60;41.90;;;;;;4352137;32;20186;-78
2021/06/22 06:47:57;;;;;;;9.07;6.18;;;33.10;39.60;;;;;;4340769;32;20085;-78
2021/06/22 06:50:23;;;;;;;9.45;6.85;;;33.30;39.30;;;;;;4353859;32;20061;-84
2021/06/22 06:52:49;;;;;;;10.88;7.03;;;33.10;39.80;;;;;;4329626;32;20436;-78
2021/06/22 06:55:26;;;;;;;7.50;6.80;;;32.60;38.50;;;;;;4353731;32;20102;-79
2021/06/22 06:57:56;;;;;;;7.15;6.45;;;32.60;41.90;;;;;;4331104;32;20174;-77
2021/06/22 07:00:23;;;;;;;6.85;6.03;;;33.00;40.00;;;;;;4340963;32;20065;-80
2021/06/22 07:02:50;;;;;;;6.50;5.80;;;33.00;40.80;;;;;;4339173;32;20078;-79
2021/06/22 07:05:17;;;;;;;8.82;6.65;;;32.10;43.80;;;;;;4338210;32;20077;-80
2021/06/22 07:07:43;;;;;;;9.15;6.03;;;31.90;44.10;;;;;;4350592;32;20093;-77
2021/06/22 07:10:10;;;;;;;9.15;6.03;;;32.10;44.00;;;;;;4338443;32;20528;-81
2021/06/22 07:12:36;;;;;;;7.65;6.55;;;32.30;39.10;;;;;;4338698;32;20130;-79
2021/06/22 07:15:03;;;;;;;5.53;4.72;;;32.20;39.60;;;;;;4350422;32;20161;-80
2021/06/22 07:17:29;;;;;;;7.28;5.65;;;32.40;40.40;;;;;;4350512;32;20071;-77
2021/06/22 07:19:56;;;;;;;6.18;5.20;;;32.40;37.20;;;;;;4350608;32;20058;-78
2021/06/22 07:22:22;;;;;;;8.00;6.10;;;32.70;36.80;;;;;;4350119;32;20134;-79
2021/06/22 07:24:50;;;;;;;7.37;6.32;;;32.40;37.90;;;;;;4338043;32;20068;-78
2021/06/22 07:27:17;;;;;;;7.55;5.87;;;31.90;39.30;;;;;;4338710;32;20059;-78
2021/06/22 07:29:43;;;;;;;20.88;7.57;;;32.20;40.00;;;;;;4338349;32;20078;-81
2021/06/22 07:32:09;;;;;;;17.37;7.45;;;32.90;38.80;;;;;;4338758;32;20080;-78
2021/06/22 07:34:36;;;;;;;7.35;5.62;;;32.30;37.70;;;;;;4338388;32;20070;-79
2021/06/22 07:37:03;;;;;;;6.37;5.68;;;32.60;34.30;;;;;;4311216;32;20085;-78
2021/06/22 07:39:29;;;;;;;8.50;5.62;;;32.60;32.90;;;;;;4335832;32;20059;-81
2021/06/22 07:41:56;;;;;;;9.13;6.43;;;33.20;34.60;;;;;;4335727;32;20093;-80
2021/06/22 07:44:22;;;;;;;6.80;6.10;;;32.90;32.70;;;;;;4335693;32;20067;-79
2021/06/22 07:46:49;;;;;;;6.87;6.00;;;32.50;34.80;;;;;;4335522;32;20426;-76
2021/06/22 07:49:15;;;;;;;6.97;5.72;;;32.10;35.20;;;;;;4336058;32;20599;-75
2021/06/22 07:51:41;;;;;;;5.90;5.30;;;32.60;34.90;;;;;;4348611;32;20092;-81
2021/06/22 07:54:08;;;;;;;7.25;5.65;;;33.10;33.10;;;;;;4335076;32;20550;-79
2021/06/22 07:56:34;;;;;;;7.00;5.60;;;33.10;31.00;;;;;;4348486;32;20090;-77
2021/06/22 07:59:00;;;;;;;8.55;6.20;;;32.90;31.20;;;;;;4347757;32;20059;-79
2021/06/22 08:01:27;;;;;;;7.95;5.95;;;32.90;32.40;;;;;;4347318;32;20084;-79
2021/06/22 08:03:54;;;;;;;7.93;5.55;;;33.10;32.40;;;;;;4323319;32;20074;-76
2021/06/22 08:06:20;;;;;;;33.28;9.32;;;33.30;31.20;;;;;;4347696;32;20465;-77
2021/06/22 08:08:46;;;;;;;10.98;5.93;;;33.20;31.10;;;;;;4323880;32;20086;-75
2021/06/22 08:11:12;;;;;;;52.15;15.25;;;33.20;29.30;;;;;;4347383;32;20069;-75
2021/06/22 08:13:39;;;;;;;5.32;4.82;;;33.40;29.70;;;;;;4323262;32;20086;-74
2021/06/22 08:16:05;;;;;;;6.07;5.10;;;32.80;28.80;;;;;;4335830;32;20065;-73
2021/06/22 08:18:33;;;;;;;5.12;4.47;;;32.80;30.00;;;;;;4335102;32;20118;-75
2021/06/22 08:21:00;;;;;;;6.00;5.28;;;33.30;29.70;;;;;;4361616;32;20086;-76
2021/06/22 08:23:26;;;;;;;8.60;6.05;;;33.10;28.90;;;;;;4323029;32;20074;-74
2021/06/22 08:25:53;;;;;;;7.07;5.97;;;33.50;32.80;;;;;;4323045;32;20161;-76
2021/06/22 08:28:20;;;;;;;7.05;6.30;;;33.20;34.60;;;;;;4336794;32;20077;-72
2021/06/22 08:30:46;;;;;;;8.02;6.60;;;32.70;35.50;;;;;;4325565;32;20105;-75
2021/06/22 08:33:13;;;;;;;9.93;6.12;;;33.10;35.90;;;;;;4341626;32;20094;-76
2021/06/22 08:35:39;;;;;;;8.88;6.35;;;33.40;36.70;;;;;;4335894;32;20159;-71
2021/06/22 08:38:08;;;;;;;7.00;5.87;;;33.10;35.40;;;;;;4349345;32;20073;-70
2021/06/22 08:40:37;;;;;;;7.12;5.25;;;33.10;34.30;;;;;;4340741;32;20147;-74
2021/06/22 08:43:03;;;;;;;7.50;6.05;;;33.00;33.50;;;;;;4337895;32;20093;-71
2021/06/22 08:45:29;;;;;;;8.00;6.25;;;33.60;32.90;;;;;;4335100;32;20156;-70
2021/06/22 08:47:56;;;;;;;6.87;5.80;;;33.60;34.60;;;;;;4351194;32;20101;-74
2021/06/22 08:50:22;;;;;;;7.93;5.87;;;33.40;33.70;;;;;;4357163;32;20073;-75
2021/06/22 08:52:49;;;;;;;6.50;5.68;;;33.30;34.90;;;;;;4351148;32;20129;-76
2021/06/22 08:55:26;;;;;;;5.65;5.15;;;33.30;34.10;;;;;;4321947;32;20513;-74
2021/06/22 08:58:08;;;;;;;6.35;5.30;;;33.70;33.20;;;;;;4331967;32;20094;-72
2021/06/22 09:00:38;;;;;;;6.35;5.30;;;34.00;30.60;;;;;;4339558;32;20066;-74
2021/06/22 09:03:13;;;;;;;5.15;4.65;;;33.90;29.40;;;;;;4336643;32;20663;-71
2021/06/22 09:05:47;;;;;;;8.32;4.95;;;33.80;28.80;;;;;;4341135;32;20066;-68
2021/06/22 09:08:29;;;;;;;5.28;4.78;;;33.70;28.10;;;;;;4336463;32;20509;-77
2021/06/22 09:11:15;;;;;;;6.65;4.78;;;33.40;30.10;;;;;;4362315;32;20086;-77
2021/06/22 09:13:44;;;;;;;8.07;5.05;;;33.10;29.10;;;;;;4348494;32;20063;-73
2021/06/22 09:16:13;;;;;;;5.57;4.93;;;33.50;30.20;;;;;;4346260;32;20061;-73
2021/06/22 09:18:43;;;;;;;6.60;4.80;;;33.30;29.10;;;;;;4334704;32;20124;-76
2021/06/22 09:21:22;;;;;;;5.32;4.55;;;32.90;29.60;;;;;;4351438;32;20081;-71
2021/06/22 09:23:49;;;;;;;5.68;4.78;;;33.50;29.40;;;;;;4345749;32;20183;-71
2021/06/22 09:26:31;;;;;;;5.68;4.93;;;33.50;28.00;;;;;;4347973;32;20082;-70
2021/06/22 09:29:10;;;;;;;7.07;4.80;;;33.70;29.20;;;;;;4333968;32;20056;-77
2021/06/22 09:31:36;;;;;;;5.30;4.80;;;34.00;30.00;;;;;;4322278;32;20138;-70
2021/06/22 09:34:02;;;;;;;5.68;4.90;;;33.80;29.30;;;;;;4346863;32;20090;-76
2021/06/22 09:36:30;;;;;;;6.05;4.62;;;33.80;28.20;;;;;;4347968;32;20502;-71
2021/06/22 09:39:07;;;;;;;6.85;4.78;;;33.70;27.80;;;;;;4330951;32;20109;-73
2021/06/22 09:41:42;;;;;;;6.22;5.07;;;33.80;28.10;;;;;;4355531;32;20071;-76
2021/06/22 09:44:12;;;;;;;6.20;4.90;;;34.00;27.40;;;;;;4343003;32;20067;-73
2021/06/22 09:46:44;;;;;;;7.70;4.70;;;33.90;26.30;;;;;;4344468;32;20146;-76
2021/06/22 09:49:16;;;;;;;6.07;5.00;;;33.80;26.70;;;;;;4346450;32;20089;-73
2021/06/22 09:51:53;;;;;;;6.95;4.57;;;33.80;28.50;;;;;;4363604;32;20141;-75
2021/06/22 09:54:31;;;;;;;6.37;5.75;;;34.30;27.90;;;;;;4341684;32;20113;-77
2021/06/22 09:57:01;;;;;;;6.62;5.37;;;34.30;27.80;;;;;;4331461;32;20168;-73
2021/06/22 09:59:31;;;;;;;6.47;5.87;;;34.00;28.30;;;;;;4349639;32;20078;-79
2021/06/22 10:02:08;;;;;;;6.55;5.32;;;33.80;29.40;;;;;;4348337;32;20074;-77
2021/06/22 10:04:35;;;;;;;5.97;5.37;;;34.20;28.90;;;;;;4347127;32;20113;-76
2021/06/22 10:07:01;;;;;;;6.90;6.12;;;34.20;28.40;;;;;;4340123;32;20141;-73
2021/06/22 10:09:32;;;;;;;9.43;6.00;;;34.50;30.80;;;;;;4345573;32;20225;-75
2021/06/22 10:12:09;;;;;;;7.47;6.50;;;34.00;31.50;;;;;;4324205;32;20481;-73
2021/06/22 10:14:40;;;;;;;11.63;6.55;;;34.00;32.20;;;;;;4339397;32;20077;-73
2021/06/22 10:17:08;;;;;;;6.75;6.00;;;34.40;31.70;;;;;;4351774;32;20172;-72
2021/06/22 10:19:36;;;;;;;8.00;6.12;;;33.60;32.70;;;;;;4341607;32;20453;-72
2021/06/22 10:22:05;;;;;;;7.10;5.60;;;33.50;30.00;;;;;;4361911;32;20105;-72
2021/06/22 10:24:33;;;;;;;7.75;5.75;;;34.40;29.80;;;;;;4358922;32;20069;-75
2021/06/22 10:27:00;;;;;;;9.00;5.60;;;34.00;28.50;;;;;;4348557;32;20473;-74
2021/06/22 10:29:27;;;;;;;7.32;5.20;;;34.50;29.30;;;;;;4338624;32;20456;-73
2021/06/22 10:31:55;;;;;;;5.97;5.28;;;34.50;28.00;;;;;;4330628;32;20085;-73
2021/06/22 10:34:21;;;;;;;6.85;6.12;;;33.70;29.10;;;;;;4346522;32;20065;-74
2021/06/22 10:37:03;;;;;;;6.40;5.60;;;34.40;30.80;;;;;;4342464;32;20067;-70
2021/06/22 10:39:40;;;;;;;5.85;5.25;;;34.30;28.80;;;;;;4360816;32;20086;-73
2021/06/22 10:42:11;;;;;;;5.72;5.03;;;34.60;28.00;;;;;;4353041;32;20489;-74
2021/06/22 10:45:04;;;;;;;6.50;5.12;;;34.60;27.80;;;;;;4349365;32;20062;-76
2021/06/22 10:47:41;;;;;;;6.30;4.97;;;34.40;28.80;;;;;;4341292;32;20054;-75
2021/06/22 10:50:20;;;;;;;6.90;5.45;;;34.00;27.90;;;;;;4346885;32;20082;-76
2021/06/22 10:53:10;;;;;;;6.57;5.12;;;35.00;27.80;;;;;;4353506;32;20082;-69
2021/06/22 10:55:46;;;;;;;7.75;5.45;;;35.00;26.70;;;;;;4355727;32;20070;-71
2021/06/22 10:58:13;;;;;;;7.68;5.60;;;35.00;29.50;;;;;;4351826;32;20065;-73
2021/06/22 11:00:51;;;;;;;9.00;5.87;;;34.00;30.60;;;;;;4363034;32;20170;-72
2021/06/22 11:03:24;;;;;;;11.20;6.55;;;34.10;30.20;;;;;;4350372;32;20051;-71
2021/06/22 11:06:05;;;;;;;7.55;6.22;;;34.70;30.90;;;;;;4350936;32;20146;-75
2021/06/22 11:08:38;;;;;;;9.48;5.53;;;34.40;29.60;;;;;;4370999;32;20094;-73
2021/06/22 11:11:07;;;;;;;8.02;6.65;;;35.00;30.00;;;;;;4336829;32;20092;-73
2021/06/22 11:13:49;;;;;;;7.37;6.37;;;34.40;30.00;;;;;;4345272;32;20164;-72
2021/06/22 11:16:19;;;;;;;6.97;6.10;;;34.60;29.80;;;;;;4342615;32;20517;-70
2021/06/22 11:21:19;;;;;;;7.50;6.05;;;34.90;27.80;;;;;;4360324;32;20520;-72
2021/06/22 11:24:05;;;;;;;6.40;5.62;;;35.00;29.00;;;;;;4346916;32;20102;-73
2021/06/22 11:26:50;;;;;;;10.20;5.85;;;34.00;27.50;;;;;;4336106;32;20094;-73
2021/06/22 11:29:22;;;;;;;6.37;5.10;;;34.60;27.50;;;;;;4364363;32;20163;-71
2021/06/22 11:31:51;;;;;;;7.80;5.65;;;34.40;26.70;;;;;;4329003;32;20122;-69
2021/06/22 11:34:32;;;;;;;7.55;5.55;;;34.70;28.30;;;;;;4345123;32;20055;-74
2021/06/22 11:37:21;;;;;;;6.90;6.12;;;34.90;28.70;;;;;;4331072;32;20171;-71
2021/06/22 11:40:13;;;;;;;7.40;5.80;;;35.10;28.20;;;;;;4331674;32;20063;-71
